sensor_id;sensor_type;location;lat;lon;timestamp;pressure;altitude;pressure_sealevel;temperature;humidity
70011;BME280;59543;37.950;-122.338;2023-04-06T00:02:18;102008.88;;;15.50;37.81
70011;BME280;59543;37.950;-122.338;2023-04-06T00:04:44;101998.88;;;15.51;38.87
70011;BME280;59543;37.950;-122.338;2023-04-06T00:07:10;101999.38;;;15.46;39.98
70011;BME280;59543;37.950;-122.338;2023-04-06T00:09:37;102003.72;;;15.29;41.75
70011;BME280;59543;37.950;-122.338;2023-04-06T00:12:03;102002.63;;;15.13;42.75
70011;BME280;59543;37.950;-122.338;2023-04-06T00:14:29;102001.19;;;15.18;43.14
70011;BME280;59543;37.950;-122.338;2023-04-06T00:16:56;102003.34;;;15.15;43.54
70011;BME280;59543;37.950;-122.338;2023-04-06T00:19:22;101996.53;;;15.01;44.26
70011;BME280;59543;37.950;-122.338;2023-04-06T00:21:48;102001.97;;;14.91;44.88
70011;BME280;59543;37.950;-122.338;2023-04-06T00:24:15;101997.13;;;14.85;44.43
70011;BME280;59543;37.950;-122.338;2023-04-06T00:26:41;101992.78;;;15.12;44.89
70011;BME280;59543;37.950;-122.338;2023-04-06T00:29:07;102003.75;;;15.10;42.47
70011;BME280;59543;37.950;-122.338;2023-04-06T00:31:34;101987.88;;;15.25;42.53
70011;BME280;59543;37.950;-122.338;2023-04-06T00:34:00;101988.03;;;15.51;43.85
70011;BME280;59543;37.950;-122.338;2023-04-06T00:36:26;101983.09;;;15.64;43.82
70011;BME280;59543;37.950;-122.338;2023-04-06T00:38:53;101979.84;;;15.33;40.66
70011;BME280;59543;37.950;-122.338;2023-04-06T00:41:19;101983.63;;;15.22;40.25
70011;BME280;59543;37.950;-122.338;2023-04-06T00:43:46;101987.25;;;15.41;40.21
70011;BME280;59543;37.950;-122.338;2023-04-06T00:46:12;101980.38;;;15.09;39.23
70011;BME280;59543;37.950;-122.338;2023-04-06T00:48:39;101982.72;;;14.94;40.37
70011;BME280;59543;37.950;-122.338;2023-04-06T00:51:06;101985.97;;;14.98;41.82
70011;BME280;59543;37.950;-122.338;2023-04-06T00:53:32;101987.91;;;15.15;39.82
70011;BME280;59543;37.950;-122.338;2023-04-06T00:55:58;101982.41;;;14.97;40.46
70011;BME280;59543;37.950;-122.338;2023-04-06T00:58:25;101973.91;;;14.82;41.27
70011;BME280;59543;37.950;-122.338;2023-04-06T01:00:51;101978.75;;;14.79;40.46
70011;BME280;59543;37.950;-122.338;2023-04-06T01:03:18;101984.16;;;14.89;41.60
70011;BME280;59543;37.950;-122.338;2023-04-06T01:05:44;101977.16;;;14.96;41.78
70011;BME280;59543;37.950;-122.338;2023-04-06T01:08:10;101976.03;;;14.89;40.89
70011;BME280;59543;37.950;-122.338;2023-04-06T01:10:37;101981.66;;;14.58;39.60
70011;BME280;59543;37.950;-122.338;2023-04-06T01:13:03;101975.53;;;14.56;38.63
70011;BME280;59543;37.950;-122.338;2023-04-06T01:15:29;101976.94;;;14.50;39.19
70011;BME280;59543;37.950;-122.338;2023-04-06T01:17:56;101969.81;;;14.49;39.00
70011;BME280;59543;37.950;-122.338;2023-04-06T01:20:22;101974.53;;;14.28;40.05
70011;BME280;59543;37.950;-122.338;2023-04-06T01:22:48;101974.94;;;14.43;40.29
70011;BME280;59543;37.950;-122.338;2023-04-06T01:25:14;101974.22;;;14.40;41.09
70011;BME280;59543;37.950;-122.338;2023-04-06T01:27:41;101977.53;;;14.44;40.58
70011;BME280;59543;37.950;-122.338;2023-04-06T01:30:08;101969.84;;;14.30;41.61
70011;BME280;59543;37.950;-122.338;2023-04-06T01:32:34;101963.00;;;14.16;40.59
70011;BME280;59543;37.950;-122.338;2023-04-06T01:35:01;101962.84;;;14.08;40.17
70011;BME280;59543;37.950;-122.338;2023-04-06T01:37:27;101947.63;;;14.16;41.61
70011;BME280;59543;37.950;-122.338;2023-04-06T01:39:55;101950.88;;;14.10;40.34
70011;BME280;59543;37.950;-122.338;2023-04-06T01:42:22;101951.91;;;14.00;41.27
70011;BME280;59543;37.950;-122.338;2023-04-06T01:44:48;101940.22;;;13.99;42.64
70011;BME280;59543;37.950;-122.338;2023-04-06T01:47:14;101939.50;;;13.97;42.01
70011;BME280;59543;37.950;-122.338;2023-04-06T01:49:40;101951.03;;;13.89;42.08
70011;BME280;59543;37.950;-122.338;2023-04-06T01:52:07;101959.84;;;13.72;42.05
70011;BME280;59543;37.950;-122.338;2023-04-06T01:54:33;101955.47;;;13.90;42.75
70011;BME280;59543;37.950;-122.338;2023-04-06T01:57:00;101942.16;;;13.58;43.02
70011;BME280;59543;37.950;-122.338;2023-04-06T01:59:26;101938.47;;;13.59;44.12
70011;BME280;59543;37.950;-122.338;2023-04-06T02:01:53;101946.38;;;13.41;43.15
70011;BME280;59543;37.950;-122.338;2023-04-06T02:04:19;101945.34;;;13.33;44.25
70011;BME280;59543;37.950;-122.338;2023-04-06T02:06:46;101941.41;;;13.37;44.69
70011;BME280;59543;37.950;-122.338;2023-04-06T02:09:14;101938.03;;;13.14;45.30
70011;BME280;59543;37.950;-122.338;2023-04-06T02:11:40;101935.88;;;13.08;44.51
70011;BME280;59543;37.950;-122.338;2023-04-06T02:14:07;101940.19;;;12.89;45.01
70011;BME280;59543;37.950;-122.338;2023-04-06T02:16:33;101946.22;;;13.02;46.29
70011;BME280;59543;37.950;-122.338;2023-04-06T02:18:59;101945.91;;;12.96;46.58
70011;BME280;59543;37.950;-122.338;2023-04-06T02:21:25;101948.72;;;12.85;47.45
70011;BME280;59543;37.950;-122.338;2023-04-06T02:23:52;101945.88;;;12.86;46.42
70011;BME280;59543;37.950;-122.338;2023-04-06T02:26:18;101949.84;;;12.82;47.20
70011;BME280;59543;37.950;-122.338;2023-04-06T02:28:44;101955.81;;;12.86;47.49
70011;BME280;59543;37.950;-122.338;2023-04-06T02:31:11;101952.81;;;12.79;47.72
70011;BME280;59543;37.950;-122.338;2023-04-06T02:33:37;101954.25;;;12.62;48.04
70011;BME280;59543;37.950;-122.338;2023-04-06T02:36:03;101963.53;;;12.48;48.18
70011;BME280;59543;37.950;-122.338;2023-04-06T02:38:30;101961.50;;;12.41;48.38
70011;BME280;59543;37.950;-122.338;2023-04-06T02:40:56;101960.91;;;12.37;48.04
70011;BME280;59543;37.950;-122.338;2023-04-06T02:43:22;101951.09;;;12.36;49.05
70011;BME280;59543;37.950;-122.338;2023-04-06T02:45:49;101953.41;;;12.41;48.79
70011;BME280;59543;37.950;-122.338;2023-04-06T02:48:15;101959.72;;;12.30;48.55
70011;BME280;59543;37.950;-122.338;2023-04-06T02:50:41;101963.41;;;12.29;48.82
70011;BME280;59543;37.950;-122.338;2023-04-06T02:53:07;101966.47;;;12.24;49.17
70011;BME280;59543;37.950;-122.338;2023-04-06T02:55:34;101965.50;;;12.25;49.27
70011;BME280;59543;37.950;-122.338;2023-04-06T02:58:00;101964.75;;;12.02;50.71
70011;BME280;59543;37.950;-122.338;2023-04-06T03:00:27;101960.59;;;11.98;50.90
70011;BME280;59543;37.950;-122.338;2023-04-06T03:02:53;101963.16;;;12.00;51.14
70011;BME280;59543;37.950;-122.338;2023-04-06T03:05:19;101961.47;;;11.99;50.75
70011;BME280;59543;37.950;-122.338;2023-04-06T03:07:45;101958.50;;;11.58;53.11
70011;BME280;59543;37.950;-122.338;2023-04-06T03:10:12;101963.75;;;11.60;53.57
70011;BME280;59543;37.950;-122.338;2023-04-06T03:12:38;101968.88;;;11.63;56.72
70011;BME280;59543;37.950;-122.338;2023-04-06T03:15:08;101965.28;;;11.85;57.45
70011;BME280;59543;37.950;-122.338;2023-04-06T03:17:34;101967.88;;;11.64;57.96
70011;BME280;59543;37.950;-122.338;2023-04-06T03:20:00;101974.94;;;11.33;59.40
70011;BME280;59543;37.950;-122.338;2023-04-06T03:22:27;101981.06;;;11.24;59.72
70011;BME280;59543;37.950;-122.338;2023-04-06T03:24:53;101983.50;;;11.15;60.36
70011;BME280;59543;37.950;-122.338;2023-04-06T03:27:19;101991.59;;;11.04;60.69
70011;BME280;59543;37.950;-122.338;2023-04-06T03:29:46;101974.69;;;11.13;60.76
70011;BME280;59543;37.950;-122.338;2023-04-06T03:32:12;101977.59;;;10.76;61.51
70011;BME280;59543;37.950;-122.338;2023-04-06T03:34:39;101974.91;;;10.65;61.77
70011;BME280;59543;37.950;-122.338;2023-04-06T03:37:05;101970.25;;;10.56;61.88
70011;BME280;59543;37.950;-122.338;2023-04-06T03:39:31;101973.75;;;10.45;62.37
70011;BME280;59543;37.950;-122.338;2023-04-06T03:41:58;101983.59;;;10.34;63.48
70011;BME280;59543;37.950;-122.338;2023-04-06T03:44:24;101982.28;;;10.39;62.80
70011;BME280;59543;37.950;-122.338;2023-04-06T03:46:50;101982.44;;;10.25;63.51
70011;BME280;59543;37.950;-122.338;2023-04-06T03:49:16;101990.88;;;10.20;63.71
70011;BME280;59543;37.950;-122.338;2023-04-06T03:51:43;101988.91;;;10.22;64.03
70011;BME280;59543;37.950;-122.338;2023-04-06T03:54:09;101995.69;;;10.28;64.04
70011;BME280;59543;37.950;-122.338;2023-04-06T03:56:35;101997.72;;;10.24;64.10
70011;BME280;59543;37.950;-122.338;2023-04-06T03:59:02;101998.88;;;10.09;64.88
70011;BME280;59543;37.950;-122.338;2023-04-06T04:01:28;101991.66;;;10.10;64.58
70011;BME280;59543;37.950;-122.338;2023-04-06T04:03:54;101998.66;;;10.12;64.91
70011;BME280;59543;37.950;-122.338;2023-04-06T04:06:21;101998.25;;;10.05;64.85
70011;BME280;59543;37.950;-122.338;2023-04-06T04:08:47;102005.19;;;9.97;65.87
70011;BME280;59543;37.950;-122.338;2023-04-06T04:11:13;101995.19;;;9.99;65.32
70011;BME280;59543;37.950;-122.338;2023-04-06T04:13:41;102014.94;;;9.98;65.86
70011;BME280;59543;37.950;-122.338;2023-04-06T04:16:07;102007.34;;;10.16;65.33
70011;BME280;59543;37.950;-122.338;2023-04-06T04:18:33;102015.16;;;9.95;66.08
70011;BME280;59543;37.950;-122.338;2023-04-06T04:21:00;102010.78;;;9.94;66.12
70011;BME280;59543;37.950;-122.338;2023-04-06T04:23:26;102020.25;;;9.87;67.00
70011;BME280;59543;37.950;-122.338;2023-04-06T04:25:52;102019.53;;;9.84;67.30
70011;BME280;59543;37.950;-122.338;2023-04-06T04:28:19;102023.97;;;9.73;67.13
70011;BME280;59543;37.950;-122.338;2023-04-06T04:30:46;102024.59;;;9.76;67.10
70011;BME280;59543;37.950;-122.338;2023-04-06T04:33:12;102022.59;;;9.67;67.42
70011;BME280;59543;37.950;-122.338;2023-04-06T04:35:38;102022.34;;;9.70;67.35
70011;BME280;59543;37.950;-122.338;2023-04-06T04:38:04;102019.13;;;9.65;66.98
70011;BME280;59543;37.950;-122.338;2023-04-06T04:40:31;102023.84;;;9.74;67.67
70011;BME280;59543;37.950;-122.338;2023-04-06T04:42:57;102023.34;;;9.69;67.76
70011;BME280;59543;37.950;-122.338;2023-04-06T04:45:23;102018.97;;;9.55;67.88
70011;BME280;59543;37.950;-122.338;2023-04-06T04:47:50;102016.50;;;9.52;67.91
70011;BME280;59543;37.950;-122.338;2023-04-06T04:50:16;102017.78;;;9.47;68.75
70011;BME280;59543;37.950;-122.338;2023-04-06T04:52:42;102019.53;;;9.48;68.23
70011;BME280;59543;37.950;-122.338;2023-04-06T04:55:08;102034.84;;;9.58;68.55
70011;BME280;59543;37.950;-122.338;2023-04-06T04:57:35;102038.44;;;9.46;68.86
70011;BME280;59543;37.950;-122.338;2023-04-06T05:00:01;102038.66;;;9.43;68.99
70011;BME280;59543;37.950;-122.338;2023-04-06T05:02:28;102043.38;;;9.39;69.17
70011;BME280;59543;37.950;-122.338;2023-04-06T05:04:54;102041.44;;;9.29;69.64
70011;BME280;59543;37.950;-122.338;2023-04-06T05:07:21;102037.38;;;9.23;69.83
70011;BME280;59543;37.950;-122.338;2023-04-06T05:09:47;102037.81;;;9.17;70.07
70011;BME280;59543;37.950;-122.338;2023-04-06T05:12:13;102042.63;;;8.99;70.84
70011;BME280;59543;37.950;-122.338;2023-04-06T05:14:40;102043.41;;;9.01;70.90
70011;BME280;59543;37.950;-122.338;2023-04-06T05:17:07;102048.22;;;8.96;71.15
70011;BME280;59543;37.950;-122.338;2023-04-06T05:19:33;102034.59;;;8.99;70.59
70011;BME280;59543;37.950;-122.338;2023-04-06T05:21:59;102044.25;;;9.02;70.23
70011;BME280;59543;37.950;-122.338;2023-04-06T05:24:26;102033.81;;;8.84;71.75
70011;BME280;59543;37.950;-122.338;2023-04-06T05:26:52;102037.00;;;8.24;73.92
70011;BME280;59543;37.950;-122.338;2023-04-06T05:29:18;102039.41;;;7.87;75.71
70011;BME280;59543;37.950;-122.338;2023-04-06T05:31:46;102043.66;;;7.77;76.57
70011;BME280;59543;37.950;-122.338;2023-04-06T05:34:12;102039.69;;;7.55;77.79
70011;BME280;59543;37.950;-122.338;2023-04-06T05:36:39;102040.28;;;7.46;77.94
70011;BME280;59543;37.950;-122.338;2023-04-06T05:39:06;102041.97;;;7.47;78.08
70011;BME280;59543;37.950;-122.338;2023-04-06T05:41:33;102048.50;;;7.43;78.18
70011;BME280;59543;37.950;-122.338;2023-04-06T05:43:59;102048.69;;;7.40;78.42
70011;BME280;59543;37.950;-122.338;2023-04-06T05:46:25;102047.34;;;7.47;77.54
70011;BME280;59543;37.950;-122.338;2023-04-06T05:48:52;102048.13;;;7.49;77.68
70011;BME280;59543;37.950;-122.338;2023-04-06T05:51:17;102057.84;;;7.50;77.05
70011;BME280;59543;37.950;-122.338;2023-04-06T05:53:44;102053.75;;;7.59;77.07
70011;BME280;59543;37.950;-122.338;2023-04-06T05:56:10;102056.41;;;7.59;76.89
70011;BME280;59543;37.950;-122.338;2023-04-06T05:58:37;102062.75;;;7.44;77.09
70011;BME280;59543;37.950;-122.338;2023-04-06T06:01:03;102055.56;;;7.44;77.13
70011;BME280;59543;37.950;-122.338;2023-04-06T06:03:30;102057.84;;;7.50;77.27
70011;BME280;59543;37.950;-122.338;2023-04-06T06:06:01;102063.88;;;7.54;76.35
70011;BME280;59543;37.950;-122.338;2023-04-06T06:08:27;102054.22;;;7.51;76.42
70011;BME280;59543;37.950;-122.338;2023-04-06T06:10:54;102059.22;;;7.43;76.68
70011;BME280;59543;37.950;-122.338;2023-04-06T06:13:21;102055.94;;;7.24;77.82
70011;BME280;59543;37.950;-122.338;2023-04-06T06:15:48;102059.84;;;7.18;78.16
70011;BME280;59543;37.950;-122.338;2023-04-06T06:18:14;102059.31;;;7.13;78.22
70011;BME280;59543;37.950;-122.338;2023-04-06T06:20:41;102048.00;;;7.08;78.35
70011;BME280;59543;37.950;-122.338;2023-04-06T06:23:07;102051.91;;;6.88;79.52
70011;BME280;59543;37.950;-122.338;2023-04-06T06:25:33;102053.53;;;6.91;79.51
70011;BME280;59543;37.950;-122.338;2023-04-06T06:27:59;102052.28;;;6.96;79.07
70011;BME280;59543;37.950;-122.338;2023-04-06T06:30:26;102052.09;;;6.99;79.31
70011;BME280;59543;37.950;-122.338;2023-04-06T06:32:52;102055.06;;;6.95;78.83
70011;BME280;59543;37.950;-122.338;2023-04-06T06:35:18;102052.06;;;6.85;79.31
70011;BME280;59543;37.950;-122.338;2023-04-06T06:37:44;102051.47;;;6.66;80.61
70011;BME280;59543;37.950;-122.338;2023-04-06T06:40:10;102055.97;;;6.65;80.67
70011;BME280;59543;37.950;-122.338;2023-04-06T06:42:39;102052.53;;;6.63;80.92
70011;BME280;59543;37.950;-122.338;2023-04-06T06:45:07;102047.63;;;6.55;81.15
70011;BME280;59543;37.950;-122.338;2023-04-06T06:47:33;102044.56;;;6.47;81.49
70011;BME280;59543;37.950;-122.338;2023-04-06T06:49:59;102045.78;;;6.41;82.03
70011;BME280;59543;37.950;-122.338;2023-04-06T06:52:26;102043.28;;;6.38;81.81
70011;BME280;59543;37.950;-122.338;2023-04-06T06:54:54;102045.53;;;6.30;82.37
70011;BME280;59543;37.950;-122.338;2023-04-06T06:57:21;102048.31;;;6.29;82.73
70011;BME280;59543;37.950;-122.338;2023-04-06T06:59:47;102043.47;;;6.19;83.19
70011;BME280;59543;37.950;-122.338;2023-04-06T07:02:14;102046.13;;;6.19;83.26
70011;BME280;59543;37.950;-122.338;2023-04-06T07:04:39;102053.59;;;6.14;83.45
70011;BME280;59543;37.950;-122.338;2023-04-06T07:07:06;102048.25;;;6.14;83.62
70011;BME280;59543;37.950;-122.338;2023-04-06T07:09:32;102045.22;;;6.21;83.13
70011;BME280;59543;37.950;-122.338;2023-04-06T07:11:59;102038.41;;;6.15;83.11
70011;BME280;59543;37.950;-122.338;2023-04-06T07:14:26;102047.38;;;6.14;82.80
70011;BME280;59543;37.950;-122.338;2023-04-06T07:16:52;102040.41;;;6.11;82.88
70011;BME280;59543;37.950;-122.338;2023-04-06T07:19:18;102035.44;;;6.19;82.75
70011;BME280;59543;37.950;-122.338;2023-04-06T07:21:44;102031.53;;;6.11;82.34
70011;BME280;59543;37.950;-122.338;2023-04-06T07:24:10;102033.59;;;6.06;82.72
70011;BME280;59543;37.950;-122.338;2023-04-06T07:26:36;102028.94;;;6.09;82.22
70011;BME280;59543;37.950;-122.338;2023-04-06T07:29:02;102027.78;;;6.13;82.05
70011;BME280;59543;37.950;-122.338;2023-04-06T07:31:29;102026.09;;;6.12;81.92
70011;BME280;59543;37.950;-122.338;2023-04-06T07:33:55;102027.72;;;6.15;81.30
70011;BME280;59543;37.950;-122.338;2023-04-06T07:36:21;102033.84;;;6.01;82.29
70011;BME280;59543;37.950;-122.338;2023-04-06T07:38:47;102034.13;;;5.97;82.91
70011;BME280;59543;37.950;-122.338;2023-04-06T07:41:14;102036.16;;;5.76;83.34
70011;BME280;59543;37.950;-122.338;2023-04-06T07:43:40;102042.78;;;5.68;84.26
70011;BME280;59543;37.950;-122.338;2023-04-06T07:46:06;102046.34;;;5.69;84.21
70011;BME280;59543;37.950;-122.338;2023-04-06T07:48:32;102046.91;;;5.74;84.03
70011;BME280;59543;37.950;-122.338;2023-04-06T07:51:04;102037.53;;;5.83;83.71
70011;BME280;59543;37.950;-122.338;2023-04-06T07:53:32;102040.88;;;5.86;83.50
70011;BME280;59543;37.950;-122.338;2023-04-06T07:55:59;102042.88;;;5.99;82.47
70011;BME280;59543;37.950;-122.338;2023-04-06T07:58:25;102033.44;;;5.93;82.41
70011;BME280;59543;37.950;-122.338;2023-04-06T08:00:51;102035.16;;;5.94;82.75
70011;BME280;59543;37.950;-122.338;2023-04-06T08:03:17;102035.72;;;5.83;83.27
70011;BME280;59543;37.950;-122.338;2023-04-06T08:05:46;102039.00;;;5.72;83.84
70011;BME280;59543;37.950;-122.338;2023-04-06T08:08:12;102037.44;;;5.68;84.32
70011;BME280;59543;37.950;-122.338;2023-04-06T08:10:38;102035.38;;;5.73;84.16
70011;BME280;59543;37.950;-122.338;2023-04-06T08:13:04;102032.38;;;5.80;83.53
70011;BME280;59543;37.950;-122.338;2023-04-06T08:15:30;102044.97;;;5.78;83.21
70011;BME280;59543;37.950;-122.338;2023-04-06T08:17:56;102043.06;;;5.80;83.50
70011;BME280;59543;37.950;-122.338;2023-04-06T08:20:22;102034.09;;;5.81;83.04
70011;BME280;59543;37.950;-122.338;2023-04-06T08:22:49;102044.69;;;5.82;83.18
70011;BME280;59543;37.950;-122.338;2023-04-06T08:25:15;102043.28;;;5.59;83.98
70011;BME280;59543;37.950;-122.338;2023-04-06T08:27:41;102042.88;;;5.51;85.27
70011;BME280;59543;37.950;-122.338;2023-04-06T08:30:07;102038.03;;;5.42;84.89
70011;BME280;59543;37.950;-122.338;2023-04-06T08:32:34;102036.56;;;5.36;85.79
70011;BME280;59543;37.950;-122.338;2023-04-06T08:35:00;102034.41;;;5.27;86.37
70011;BME280;59543;37.950;-122.338;2023-04-06T08:37:27;102036.69;;;5.17;87.14
70011;BME280;59543;37.950;-122.338;2023-04-06T08:39:54;102027.28;;;5.10;87.66
70011;BME280;59543;37.950;-122.338;2023-04-06T08:42:20;102030.91;;;5.09;88.10
70011;BME280;59543;37.950;-122.338;2023-04-06T08:44:49;102026.44;;;5.10;88.14
70011;BME280;59543;37.950;-122.338;2023-04-06T08:47:16;102020.94;;;5.13;88.21
70011;BME280;59543;37.950;-122.338;2023-04-06T08:49:42;102018.91;;;5.18;88.26
70011;BME280;59543;37.950;-122.338;2023-04-06T08:52:10;102028.22;;;5.26;88.45
70011;BME280;59543;37.950;-122.338;2023-04-06T08:54:38;102030.78;;;5.28;87.72
70011;BME280;59543;37.950;-122.338;2023-04-06T08:57:05;102029.25;;;5.40;87.70
70011;BME280;59543;37.950;-122.338;2023-04-06T08:59:33;102032.44;;;5.46;86.83
70011;BME280;59543;37.950;-122.338;2023-04-06T09:02:01;102039.50;;;5.47;86.64
70011;BME280;59543;37.950;-122.338;2023-04-06T09:04:29;102037.94;;;5.59;86.66
70011;BME280;59543;37.950;-122.338;2023-04-06T09:06:55;102038.91;;;5.58;85.69
70011;BME280;59543;37.950;-122.338;2023-04-06T09:09:21;102041.25;;;5.64;85.74
70011;BME280;59543;37.950;-122.338;2023-04-06T09:11:51;102039.34;;;5.66;85.62
70011;BME280;59543;37.950;-122.338;2023-04-06T09:14:36;102035.72;;;5.67;85.08
70011;BME280;59543;37.950;-122.338;2023-04-06T09:17:04;102035.84;;;5.66;85.71
70011;BME280;59543;37.950;-122.338;2023-04-06T09:19:30;102025.56;;;5.58;85.45
70011;BME280;59543;37.950;-122.338;2023-04-06T09:22:05;102030.22;;;5.55;85.59
70011;BME280;59543;37.950;-122.338;2023-04-06T09:24:41;102027.53;;;5.55;84.93
70011;BME280;59543;37.950;-122.338;2023-04-06T09:27:07;102025.56;;;5.42;86.04
70011;BME280;59543;37.950;-122.338;2023-04-06T09:29:33;102023.16;;;5.54;86.14
70011;BME280;59543;37.950;-122.338;2023-04-06T09:32:06;102012.97;;;5.28;87.59
70011;BME280;59543;37.950;-122.338;2023-04-06T09:34:33;102016.78;;;5.07;88.82
70011;BME280;59543;37.950;-122.338;2023-04-06T09:36:59;102023.25;;;5.03;89.28
70011;BME280;59543;37.950;-122.338;2023-04-06T09:39:27;102016.09;;;5.03;89.14
70011;BME280;59543;37.950;-122.338;2023-04-06T09:41:54;102007.66;;;5.11;88.11
70011;BME280;59543;37.950;-122.338;2023-04-06T09:44:21;102011.91;;;5.15;88.07
70011;BME280;59543;37.950;-122.338;2023-04-06T09:46:50;102009.78;;;5.22;88.29
70011;BME280;59543;37.950;-122.338;2023-04-06T09:49:19;102016.13;;;5.19;88.39
70011;BME280;59543;37.950;-122.338;2023-04-06T09:51:48;102011.06;;;5.15;88.46
70011;BME280;59543;37.950;-122.338;2023-04-06T09:54:21;102007.59;;;5.13;88.60
70011;BME280;59543;37.950;-122.338;2023-04-06T09:56:56;102004.47;;;5.04;89.33
70011;BME280;59543;37.950;-122.338;2023-04-06T09:59:41;102006.94;;;4.92;90.39
70011;BME280;59543;37.950;-122.338;2023-04-06T10:02:13;102006.41;;;4.85;89.89
70011;BME280;59543;37.950;-122.338;2023-04-06T10:04:43;102005.88;;;4.78;90.64
70011;BME280;59543;37.950;-122.338;2023-04-06T10:07:10;102005.09;;;4.76;90.35
70011;BME280;59543;37.950;-122.338;2023-04-06T10:09:38;102005.09;;;4.76;91.44
70011;BME280;59543;37.950;-122.338;2023-04-06T10:12:05;102010.06;;;4.67;91.75
70011;BME280;59543;37.950;-122.338;2023-04-06T10:14:35;102005.75;;;4.64;91.88
70011;BME280;59543;37.950;-122.338;2023-04-06T10:17:04;102004.88;;;4.64;92.19
70011;BME280;59543;37.950;-122.338;2023-04-06T10:19:47;101992.25;;;4.67;91.52
70011;BME280;59543;37.950;-122.338;2023-04-06T10:22:26;101983.13;;;4.71;91.45
70011;BME280;59543;37.950;-122.338;2023-04-06T10:24:55;101968.47;;;4.80;91.51
70011;BME280;59543;37.950;-122.338;2023-04-06T10:27:28;101960.25;;;4.85;90.67
70011;BME280;59543;37.950;-122.338;2023-04-06T10:30:04;101951.81;;;4.92;90.33
70011;BME280;59543;37.950;-122.338;2023-04-06T10:32:38;101938.84;;;5.02;90.47
70011;BME280;59543;37.950;-122.338;2023-04-06T10:35:12;101944.72;;;5.09;90.39
70011;BME280;59543;37.950;-122.338;2023-04-06T10:38:02;101934.72;;;5.12;89.91
70011;BME280;59543;37.950;-122.338;2023-04-06T10:40:28;101930.16;;;5.14;89.14
70011;BME280;59543;37.950;-122.338;2023-04-06T10:45:34;101926.41;;;5.18;89.38
70011;BME280;59543;37.950;-122.338;2023-04-06T10:48:15;101934.56;;;5.15;89.47
70011;BME280;59543;37.950;-122.338;2023-04-06T10:50:51;101935.31;;;5.17;89.81
70011;BME280;59543;37.950;-122.338;2023-04-06T10:53:24;101935.88;;;5.24;88.97
70011;BME280;59543;37.950;-122.338;2023-04-06T10:55:52;101944.28;;;5.16;89.56
70011;BME280;59543;37.950;-122.338;2023-04-06T10:58:19;101936.63;;;5.10;89.92
70011;BME280;59543;37.950;-122.338;2023-04-06T11:00:47;101924.41;;;5.06;90.66
70011;BME280;59543;37.950;-122.338;2023-04-06T11:03:14;101925.66;;;4.99;91.29
70011;BME280;59543;37.950;-122.338;2023-04-06T11:05:47;101912.72;;;5.09;90.54
70011;BME280;59543;37.950;-122.338;2023-04-06T11:08:31;101905.91;;;5.19;90.77
70011;BME280;59543;37.950;-122.338;2023-04-06T11:11:14;101902.38;;;5.18;90.49
70011;BME280;59543;37.950;-122.338;2023-04-06T11:16:25;101885.69;;;5.31;89.90
70011;BME280;59543;37.950;-122.338;2023-04-06T11:18:58;101888.06;;;5.35;89.52
70011;BME280;59543;37.950;-122.338;2023-04-06T11:21:44;101886.81;;;5.42;88.69
70011;BME280;59543;37.950;-122.338;2023-04-06T11:24:24;101890.16;;;5.46;89.06
70011;BME280;59543;37.950;-122.338;2023-04-06T11:29:22;101894.53;;;5.47;88.51
70011;BME280;59543;37.950;-122.338;2023-04-06T11:31:51;101893.59;;;5.48;88.56
70011;BME280;59543;37.950;-122.338;2023-04-06T11:34:23;101883.28;;;5.42;88.86
70011;BME280;59543;37.950;-122.338;2023-04-06T11:36:55;101883.69;;;5.34;89.20
70011;BME280;59543;37.950;-122.338;2023-04-06T11:39:23;101887.31;;;5.33;89.01
70011;BME280;59543;37.950;-122.338;2023-04-06T11:41:51;101883.53;;;5.37;89.30
70011;BME280;59543;37.950;-122.338;2023-04-06T11:44:33;101890.50;;;5.40;88.53
70011;BME280;59543;37.950;-122.338;2023-04-06T11:47:04;101888.50;;;5.43;88.71
70011;BME280;59543;37.950;-122.338;2023-04-06T11:49:31;101893.94;;;5.42;88.68
70011;BME280;59543;37.950;-122.338;2023-04-06T11:52:00;101895.25;;;5.50;87.93
70011;BME280;59543;37.950;-122.338;2023-04-06T11:54:37;101894.53;;;5.47;87.72
70011;BME280;59543;37.950;-122.338;2023-04-06T11:57:04;101895.38;;;5.47;87.34
70011;BME280;59543;37.950;-122.338;2023-04-06T11:59:34;101899.78;;;5.48;86.89
70011;BME280;59543;37.950;-122.338;2023-04-06T12:02:02;101897.19;;;5.47;86.87
70011;BME280;59543;37.950;-122.338;2023-04-06T12:04:29;101895.47;;;5.46;87.57
70011;BME280;59543;37.950;-122.338;2023-04-06T12:06:55;101895.72;;;5.41;87.22
70011;BME280;59543;37.950;-122.338;2023-04-06T12:09:22;101883.63;;;5.36;86.68
70011;BME280;59543;37.950;-122.338;2023-04-06T12:11:48;101888.06;;;5.35;86.76
70011;BME280;59543;37.950;-122.338;2023-04-06T12:14:14;101889.91;;;5.35;86.07
70011;BME280;59543;37.950;-122.338;2023-04-06T12:16:41;101890.84;;;5.34;86.23
70011;BME280;59543;37.950;-122.338;2023-04-06T12:19:08;101897.16;;;5.33;86.12
70011;BME280;59543;37.950;-122.338;2023-04-06T12:21:35;101898.16;;;5.30;85.41
70011;BME280;59543;37.950;-122.338;2023-04-06T12:24:04;101893.25;;;5.22;85.55
70011;BME280;59543;37.950;-122.338;2023-04-06T12:26:31;101897.13;;;5.17;85.27
70011;BME280;59543;37.950;-122.338;2023-04-06T12:28:58;101901.78;;;5.13;85.71
70011;BME280;59543;37.950;-122.338;2023-04-06T12:31:32;101897.22;;;5.15;85.52
70011;BME280;59543;37.950;-122.338;2023-04-06T12:34:00;101897.28;;;5.14;85.42
70011;BME280;59543;37.950;-122.338;2023-04-06T12:36:29;101903.41;;;5.16;85.37
70011;BME280;59543;37.950;-122.338;2023-04-06T12:38:55;101906.09;;;5.16;85.25